Time;durP1;ratioP1;P1;durP2;ratioP2;P2;SDS_P1;SDS_P2;PMS_P1;PMS_P2;Temp;Humidity;BMP_temperature;BMP_pressure;BME280_temperature;BME280_humidity;BME280_pressure;Samples;Min_cycle;Max_cycle;Signal;HPM_P1;HPM_P2
2024/03/10 00:01:06;;;;;;;38.97;26.73;;;11.30;99.90;;;11.40;76.04;99634.50;5010906;28;20488;-62
2024/03/10 00:03:37;;;;;;;34.47;25.95;;;11.20;99.90;;;11.58;76.01;99625.19;5011087;28;20046;-62
2024/03/10 00:06:06;;;;;;;36.00;26.15;;;11.30;99.90;;;11.62;75.03;99640.94;5011175;28;20122;-62
2024/03/10 00:08:34;;;;;;;36.40;26.45;;;11.40;99.90;;;11.37;75.48;99624.00;5010804;28;20042;-62
2024/03/10 00:11:03;;;;;;;35.90;26.52;;;11.20;99.90;;;11.42;75.96;99627.38;5010840;28;20604;-63
2024/03/10 00:13:32;;;;;;;35.72;25.30;;;11.20;99.90;;;11.46;75.53;99631.69;5011382;28;20069;-62
2024/03/10 00:16:00;;;;;;;36.55;26.38;;;11.30;99.90;;;11.49;75.44;99623.69;5010750;28;20050;-64
2024/03/10 00:18:32;;;;;;;39.28;27.55;;;11.30;99.90;;;11.65;75.22;99609.09;5011252;28;20049;-62
2024/03/10 00:21:01;;;;;;;37.47;25.80;;;11.40;99.90;;;11.72;74.83;99594.78;5010724;28;20054;-62
2024/03/10 00:23:30;;;;;;;35.33;26.45;;;11.40;99.90;;;11.78;74.35;99593.72;5010903;28;20052;-61
2024/03/10 00:25:59;;;;;;;36.15;26.23;;;11.50;99.90;;;11.72;74.25;99570.06;5010737;28;20057;-64
2024/03/10 00:28:29;;;;;;;35.35;25.33;;;11.40;99.90;;;11.69;73.93;99538.41;5010648;28;20121;-64
2024/03/10 00:30:59;;;;;;;;;;;11.50;99.90;;;11.62;74.09;99547.38;5015013;28;20054;-61
2024/03/10 00:33:30;;;;;;;37.13;24.67;;;11.40;99.90;;;11.59;74.07;99553.63;5014574;28;20375;-62
2024/03/10 00:35:58;;;;;;;37.10;24.67;;;11.40;99.90;;;11.44;74.02;99546.16;5014784;28;20089;-61
2024/03/10 00:38:27;;;;;;;35.83;25.38;;;11.40;99.90;;;11.01;75.44;99619.72;5014365;28;20435;-62
2024/03/10 00:40:56;;;;;;;35.67;25.45;;;11.00;99.90;;;10.40;78.12;99654.72;5014427;28;20457;-62
2024/03/10 00:43:25;;;;;;;34.55;25.30;;;10.40;99.90;;;10.26;79.47;99654.16;5014328;28;20104;-62
2024/03/10 00:45:53;;;;;;;39.25;25.75;;;10.10;99.90;;;10.08;80.33;99637.84;5014799;28;20120;-63
2024/03/10 00:48:22;;;;;;;36.67;26.48;;;9.90;99.90;;;10.35;79.86;99643.41;5014188;28;20054;-62
2024/03/10 00:50:51;;;;;;;39.25;26.02;;;10.00;99.90;;;10.34;80.14;99643.41;5014388;28;20465;-63
2024/03/10 00:53:20;;;;;;;36.05;26.20;;;10.00;99.90;;;10.45;79.23;99646.69;5014184;28;20518;-62
2024/03/10 00:55:49;;;;;;;35.58;25.05;;;10.10;99.90;;;10.46;79.38;99640.50;5014211;28;20117;-60
2024/03/10 00:58:17;;;;;;;36.47;26.73;;;10.10;99.90;;;10.74;78.86;99620.44;5014375;28;20042;-61
2024/03/10 01:00:45;;;;;;;34.20;25.45;;;10.40;99.90;;;11.03;78.03;99622.31;5014089;28;20112;-62
2024/03/10 01:03:15;;;;;;;35.42;25.65;;;10.60;99.90;;;11.21;77.33;99617.38;5014326;28;20052;-60
2024/03/10 01:05:44;;;;;;;33.13;25.00;;;10.80;99.90;;;11.20;76.43;99613.03;5013966;28;20045;-61
2024/03/10 01:08:13;;;;;;;33.03;25.23;;;10.90;99.90;;;11.20;75.95;99577.75;5014345;28;20046;-62
2024/03/10 01:10:42;;;;;;;34.95;25.75;;;11.10;99.90;;;11.46;75.51;99588.44;5013972;28;20048;-62
2024/03/10 01:13:11;;;;;;;33.47;24.98;;;11.20;99.90;;;11.56;74.99;99584.63;5013766;28;20442;-61
2024/03/10 01:15:40;;;;;;;34.05;24.30;;;11.30;99.90;;;11.55;74.59;99567.91;5013837;28;20074;-61
2024/03/10 01:18:08;;;;;;;33.22;24.65;;;11.30;99.90;;;11.49;74.34;99553.97;5014152;28;20046;-61
2024/03/10 01:20:37;;;;;;;35.35;25.30;;;11.30;99.90;;;11.49;74.08;99540.72;5013738;28;20077;-60
2024/03/10 01:23:06;;;;;;;33.25;24.67;;;11.30;99.90;;;11.38;73.88;99521.66;5013839;28;20054;-61
2024/03/10 01:25:36;;;;;;;33.35;24.10;;;11.30;99.90;;;11.55;73.71;99553.78;5013645;28;20045;-60
2024/03/10 01:28:07;;;;;;;33.22;24.40;;;11.30;99.90;;;11.52;73.28;99549.44;5013376;28;20057;-62
2024/03/10 01:30:37;;;;;;;31.60;24.25;;;11.30;99.90;;;11.47;73.01;99563.72;5013478;28;20042;-61
2024/03/10 01:33:06;;;;;;;32.22;24.15;;;11.30;99.90;;;11.34;73.43;99560.53;5013251;28;20513;-61
2024/03/10 01:35:35;;;;;;;31.80;23.80;;;11.10;99.90;;;11.19;73.28;99547.75;5476462;23;20130;-70
2024/03/10 01:38:05;;;;;;;32.55;24.25;;;11.10;99.90;;;11.39;73.30;99555.13;5053000;28;20120;-70
2024/03/10 01:40:33;;;;;;;33.47;23.90;;;11.10;99.90;;;11.28;73.20;99546.66;5052308;28;20049;-70
2024/03/10 01:43:05;;;;;;;34.85;23.98;;;11.10;99.90;;;11.28;73.37;99539.59;5053108;28;20041;-70
2024/03/10 01:45:34;;;;;;;33.97;23.90;;;11.10;99.90;;;11.24;73.31;99555.56;5053144;28;20045;-69
2024/03/10 01:48:03;;;;;;;34.00;24.38;;;11.10;99.90;;;10.97;73.76;99562.50;5053051;28;20041;-70
2024/03/10 01:50:31;;;;;;;33.78;24.48;;;10.90;99.90;;;10.81;74.68;99554.09;5052838;28;20087;-70
2024/03/10 01:53:00;;;;;;;32.88;23.65;;;10.70;99.90;;;10.44;75.23;99568.28;5052759;28;20040;-70
2024/03/10 01:55:29;;;;;;;35.15;24.90;;;10.40;99.90;;;10.52;75.33;99539.91;5052713;28;20369;-70
2024/03/10 01:57:58;;;;;;;33.72;24.40;;;10.40;99.90;;;10.37;75.82;99577.28;5052756;28;20434;-70
2024/03/10 02:00:28;;;;;;;30.85;23.88;;;10.20;99.90;;;10.50;76.05;99563.75;5052538;28;20040;-70
2024/03/10 02:02:59;;;;;;;31.48;23.50;;;10.30;99.90;;;10.58;75.83;99566.19;5052889;28;20049;-71
2024/03/10 02:05:27;;;;;;;32.55;24.20;;;10.30;99.90;;;10.39;76.30;99554.34;5052542;28;20118;-70
2024/03/10 02:07:56;;;;;;;32.00;23.98;;;10.20;99.90;;;10.69;75.31;99548.25;5052575;28;20048;-71
2024/03/10 02:10:25;;;;;;;36.47;23.45;;;10.40;99.90;;;10.80;74.33;99556.81;5052473;28;20120;-70
2024/03/10 02:12:55;;;;;;;32.83;23.63;;;10.50;99.90;;;10.78;74.35;99548.03;5052278;28;20474;-71
2024/03/10 02:15:23;;;;;;;29.67;23.45;;;10.60;99.90;;;10.96;73.84;99544.88;5052897;28;20405;-71
2024/03/10 02:17:53;;;;;;;35.10;22.98;;;10.70;99.90;;;10.92;73.36;99537.94;5052499;28;20037;-71
2024/03/10 02:20:21;;;;;;;33.08;23.58;;;10.70;99.90;;;11.05;73.33;99536.72;5052352;28;20493;-71
2024/03/10 02:22:50;;;;;;;31.30;23.73;;;10.80;99.90;;;11.01;72.67;99518.31;5052233;28;20124;-70
2024/03/10 02:25:24;;;;;;;32.63;23.98;;;10.80;99.90;;;11.25;72.66;99523.78;5052134;28;20095;-71
2024/03/10 02:27:55;;;;;;;31.10;23.25;;;11.00;99.90;;;11.26;72.20;99516.69;5052111;28;20041;-71
2024/03/10 02:30:31;;;;;;;31.60;22.55;;;11.00;99.90;;;11.30;71.87;99513.06;5052033;28;20548;-70
2024/03/10 02:49:38;;;;;;;28.65;22.08;;;11.40;99.90;;;11.64;70.89;99514.66;5051820;28;20048;-71
2024/03/10 02:52:07;;;;;;;29.60;23.27;;;11.40;99.90;;;11.47;70.82;99503.72;5033694;28;20099;-71
2024/03/10 02:54:39;;;;;;;31.13;23.30;;;11.30;99.90;;;11.39;70.76;99505.72;5051858;28;20037;-71
2024/03/10 02:57:08;;;;;;;29.88;21.92;;;11.20;99.90;;;11.00;70.90;99469.81;5051543;28;20442;-71
2024/03/10 02:59:38;;;;;;;29.63;22.55;;;11.20;99.90;;;11.22;71.73;99523.00;5051932;28;20354;-71
2024/03/10 03:02:08;;;;;;;30.85;23.35;;;11.00;99.90;;;11.10;71.41;99491.59;5052053;28;20041;-71
2024/03/10 03:04:37;;;;;;;34.80;23.48;;;11.00;99.90;;;11.10;71.85;99513.63;5052086;28;20041;-70
2024/03/10 03:07:06;;;;;;;31.67;23.15;;;10.90;99.90;;;10.87;72.21;99469.31;5051349;28;20029;-71
2024/03/10 03:09:35;;;;;;;30.60;23.33;;;10.90;99.90;;;11.21;72.03;99505.38;5051297;28;20432;-71
2024/03/10 03:12:04;;;;;;;30.88;22.83;;;11.00;99.90;;;10.82;71.97;99414.78;5033607;28;20132;-70
2024/03/10 03:14:32;;;;;;;35.45;24.65;;;11.10;99.90;;;11.29;72.07;99498.94;5051273;28;20504;-71
2024/03/10 03:17:05;;;;;;;33.42;24.33;;;11.00;99.90;;;11.35;72.14;99493.47;5051275;28;20029;-70
2024/03/10 03:19:36;;;;;;;31.90;24.10;;;11.10;99.90;;;11.30;71.93;99483.94;5051123;28;20045;-71
2024/03/10 03:22:06;;;;;;;33.30;24.25;;;11.10;99.90;;;11.34;72.17;99488.22;5051309;28;20048;-70
2024/03/10 03:24:36;;;;;;;35.63;25.08;;;11.10;99.90;;;11.33;71.95;99481.19;5051174;28;20087;-70
2024/03/10 03:27:05;;;;;;;35.30;23.97;;;11.10;99.90;;;11.30;71.84;99483.94;5051076;28;20045;-71
2024/03/10 03:29:33;;;;;;;33.13;24.25;;;11.10;99.90;;;11.28;72.22;99483.13;5051094;28;20041;-71
2024/03/10 03:32:05;;;;;;;33.15;24.25;;;11.00;99.90;;;11.26;72.22;99485.81;5033252;28;20393;-71
2024/03/10 03:34:34;;;;;;;33.13;24.33;;;11.00;99.90;;;11.37;72.05;99491.66;5050834;28;20037;-71
2024/03/10 03:37:03;;;;;;;31.17;23.52;;;11.10;99.90;;;11.33;71.95;99511.19;5050858;28;20110;-71
2024/03/10 03:39:34;;;;;;;36.67;24.73;;;11.10;99.90;;;11.30;71.89;99479.53;5032914;28;20048;-71
2024/03/10 03:42:03;;;;;;;;;;;11.10;99.90;;;11.33;72.04;99482.06;5051323;28;20045;-71
2024/03/10 03:44:31;;;;;;;33.25;24.42;;;11.10;99.90;;;11.38;71.95;99485.44;5050856;28;19920;-71
2024/03/10 03:47:00;;;;;;;32.33;23.58;;;11.10;99.90;;;10.90;72.43;99478.91;5050681;28;20037;-70
2024/03/10 03:49:30;;;;;;;34.17;25.00;;;10.90;99.90;;;11.16;72.69;99484.34;5050666;28;20200;-70
2024/03/10 03:51:59;;;;;;;;;;;10.90;99.90;;;11.26;72.64;99491.13;5051166;28;20071;-70
2024/03/10 03:54:28;;;;;;;35.45;24.80;;;11.00;99.90;;;11.26;72.40;99488.47;5032816;28;20316;-71
2024/03/10 03:56:58;;;;;;;33.08;24.25;;;11.00;99.90;;;11.11;72.85;99486.25;5032940;28;20048;-71
2024/03/10 03:59:26;;;;;;;34.45;25.17;;;11.00;99.90;;;11.11;72.95;99486.25;5050689;28;20045;-70
2024/03/10 04:01:55;;;;;;;35.75;25.10;;;10.90;99.90;;;11.18;73.14;99487.81;5050511;28;20033;-71
2024/03/10 04:04:23;;;;;;;35.00;25.08;;;10.90;99.90;;;11.09;73.30;99480.13;5049924;28;20044;-71
2024/03/10 04:06:54;;;;;;;32.28;24.13;;;10.90;99.90;;;11.17;73.33;99482.56;5050816;28;20040;-71
2024/03/10 04:09:23;;;;;;;31.52;24.55;;;10.90;99.90;;;11.15;73.35;99471.16;5050769;28;20048;-71
2024/03/10 04:11:52;;;;;;;33.22;25.10;;;10.90;99.90;;;11.11;73.30;99457.13;5032718;28;20037;-71
2024/03/10 04:14:21;;;;;;;36.58;25.65;;;10.90;99.90;;;11.08;73.29;99464.28;5050313;28;20040;-71
2024/03/10 04:16:50;;;;;;;34.58;25.92;;;10.80;99.90;;;11.11;73.34;99458.94;5050869;28;20048;-71
2024/03/10 04:19:20;;;;;;;35.65;24.83;;;10.80;99.90;;;11.12;73.19;99458.88;5050333;28;20080;-70
2024/03/10 04:21:49;;;;;;;35.20;26.00;;;10.90;99.90;;;11.17;73.04;99477.28;5050414;28;20048;-71
2024/03/10 04:24:21;;;;;;;36.03;26.55;;;10.90;99.90;;;11.06;73.08;99469.66;5050299;28;20289;-71
2024/03/10 04:26:50;;;;;;;34.95;26.10;;;10.90;99.90;;;11.07;73.27;99471.34;5050419;28;20037;-71
2024/03/10 04:29:19;;;;;;;35.70;26.67;;;10.90;99.90;;;10.98;73.61;99481.34;5050262;28;20044;-70
2024/03/10 04:31:49;;;;;;;36.03;26.60;;;10.80;99.90;;;10.80;73.89;99472.19;5050355;28;20070;-70
2024/03/10 04:34:17;;;;;;;34.88;25.60;;;10.60;99.90;;;10.87;74.40;99473.72;5050387;28;20044;-71
2024/03/10 04:36:46;;;;;;;37.67;27.17;;;10.60;99.90;;;10.93;74.32;99476.19;5050331;28;20049;-71
2024/03/10 04:39:16;;;;;;;39.33;26.67;;;10.70;99.90;;;10.87;74.28;99474.59;5032604;28;20045;-70
2024/03/10 04:41:46;;;;;;;39.28;27.77;;;10.70;99.90;;;10.67;74.90;99492.78;5050450;28;20072;-71
2024/03/10 04:44:15;;;;;;;41.45;27.92;;;10.60;99.90;;;10.74;74.98;99494.34;5032434;28;20071;-71
2024/03/10 04:46:44;;;;;;;39.78;27.80;;;10.50;99.90;;;10.64;75.33;99487.59;5050152;28;20472;-70
2024/03/10 04:49:13;;;;;;;40.00;28.25;;;10.50;99.90;;;10.79;75.48;99483.66;5050399;28;20033;-71
2024/03/10 04:51:41;;;;;;;38.17;27.92;;;10.50;99.90;;;10.81;75.13;99468.59;5050659;28;20369;-71
2024/03/10 04:54:10;;;;;;;38.30;28.75;;;10.60;99.90;;;10.88;75.05;99471.03;5050298;28;20064;-70
2024/03/10 04:56:39;;;;;;;38.58;28.70;;;10.60;99.90;;;10.94;74.85;99475.28;5050022;28;20029;-71
2024/03/10 04:59:08;;;;;;;39.42;28.30;;;10.70;99.90;;;11.01;74.72;99473.34;5050742;28;20052;-71
2024/03/10 05:01:38;;;;;;;39.33;29.00;;;10.70;99.90;;;11.01;74.87;99465.41;5049996;28;20041;-71
2024/03/10 05:04:09;;;;;;;41.13;29.60;;;10.80;99.90;;;10.95;74.95;99461.16;5049955;28;20663;-70
2024/03/10 05:06:38;;;;;;;39.47;28.98;;;10.80;99.90;;;10.97;74.99;99454.03;5050031;28;20111;-71
2024/03/10 05:09:06;;;;;;;37.63;28.73;;;10.70;99.90;;;10.96;75.20;99446.13;5050378;28;20048;-71
2024/03/10 05:11:35;;;;;;;43.05;30.50;;;10.70;99.90;;;10.92;75.09;99445.34;5049834;28;20095;-71
2024/03/10 05:14:04;;;;;;;44.42;30.45;;;10.70;99.90;;;10.96;74.91;99446.13;5048600;28;20049;-71
2024/03/10 05:16:34;;;;;;;43.28;29.65;;;10.70;99.90;;;10.97;74.93;99448.75;5051188;28;20055;-71
2024/03/10 05:19:04;;;;;;;40.67;29.50;;;10.70;99.90;;;10.94;75.26;99448.81;5053769;28;20120;-72
2024/03/10 05:21:33;;;;;;;41.83;30.38;;;10.70;99.90;;;10.95;75.08;99449.69;5053582;28;20120;-71
2024/03/10 05:24:02;;;;;;;40.60;29.75;;;10.70;99.90;;;11.01;75.01;99453.06;5053510;28;20390;-71
2024/03/10 05:26:30;;;;;;;41.80;29.10;;;10.80;99.90;;;10.95;74.94;99447.06;5053307;28;20037;-71
2024/03/10 05:28:59;;;;;;;41.05;29.52;;;10.70;99.90;;;10.99;74.90;99424.91;5053186;28;20045;-70
2024/03/10 05:31:29;;;;;;;41.55;30.02;;;10.70;99.90;;;10.86;75.14;99422.59;5053419;28;20126;-71
2024/03/10 05:34:03;;;;;;;43.03;31.00;;;10.70;99.90;;;10.86;74.98;99434.94;5053375;28;20052;-71
2024/03/10 05:36:33;;;;;;;43.20;30.27;;;10.60;99.90;;;10.79;75.11;99425.47;5053121;28;20706;-71
2024/03/10 05:39:02;;;;;;;43.65;30.77;;;10.60;99.90;;;10.73;75.15;99417.69;5053370;28;20043;-71
2024/03/10 05:41:30;;;;;;;40.90;30.40;;;10.60;99.90;;;10.54;75.72;99414.72;5052910;28;20095;-71
2024/03/10 05:43:59;;;;;;;41.42;30.70;;;10.30;99.90;;;10.51;76.04;99419.22;5053592;28;20067;-71
2024/03/10 05:46:28;;;;;;;43.00;30.48;;;10.30;99.90;;;10.49;76.30;99419.25;5052872;28;20057;-71
2024/03/10 05:48:58;;;;;;;42.85;31.15;;;10.30;99.90;;;10.48;76.38;99432.50;5053437;28;20478;-71
2024/03/10 05:51:28;;;;;;;43.80;31.52;;;10.20;99.90;;;10.40;76.48;99430.06;5035382;28;20571;-71
2024/03/10 05:53:56;;;;;;;42.60;31.35;;;10.20;99.90;;;10.36;76.43;99441.63;5052728;28;20037;-71
2024/03/10 05:56:25;;;;;;;39.88;29.55;;;10.20;99.90;;;10.11;77.41;99437.03;5053032;28;20041;-71
2024/03/10 05:58:54;;;;;;;44.13;32.15;;;10.00;99.90;;;10.21;77.49;99439.41;5052792;28;20558;-71
2024/03/10 06:01:23;;;;;;;43.85;32.33;;;10.00;99.90;;;10.11;77.40;99440.53;5052848;28;20040;-71
2024/03/10 06:03:53;;;;;;;48.22;32.88;;;9.90;99.90;;;10.18;77.41;99428.91;5052696;28;20040;-71
2024/03/10 06:06:22;;;;;;;44.40;32.47;;;10.00;99.90;;;10.24;77.67;99427.91;5052643;28;20059;-71
2024/03/10 06:08:52;;;;;;;47.47;32.45;;;10.00;99.90;;;10.14;77.58;99424.63;5052610;28;20041;-71
2024/03/10 06:11:20;;;;;;;47.05;32.50;;;10.00;99.90;;;10.00;78.17;99422.31;5052742;28;20044;-71
2024/03/10 06:13:49;;;;;;;43.88;31.67;;;9.90;99.90;;;10.20;77.97;99435.00;5052373;28;20406;-71
2024/03/10 06:16:18;;;;;;;42.13;31.73;;;10.00;99.90;;;10.25;77.83;99425.19;5034633;28;20734;-71
2024/03/10 06:27:10;;;;;;;45.63;32.33;;;9.80;99.90;;;10.04;78.12;99439.78;5051986;28;20041;-71
2024/03/10 06:29:38;;;;;;;44.13;32.28;;;9.80;99.90;;;10.03;78.18;99466.25;5052433;28;20106;-71
2024/03/10 06:32:07;;;;;;;47.25;32.20;;;9.90;99.90;;;9.88;78.55;99440.22;5052097;28;20037;-71
2024/03/10 06:34:37;;;;;;;46.75;33.20;;;9.70;99.90;;;9.93;78.65;99443.59;5052086;28;20377;-71
2024/03/10 06:37:05;;;;;;;45.65;33.15;;;9.70;99.90;;;9.98;78.70;99437.31;5052229;28;20381;-71
2024/03/10 06:39:36;;;;;;;45.03;32.10;;;9.70;99.90;;;9.95;79.03;99447.94;5051995;28;20041;-70
2024/03/10 06:42:07;;;;;;;44.60;33.10;;;9.80;99.90;;;9.83;78.35;99408.63;5051948;28;20033;-70
2024/03/10 06:44:36;;;;;;;43.85;32.00;;;9.70;99.90;;;10.03;78.66;99450.38;5051905;28;20040;-70
2024/03/10 06:47:05;;;;;;;44.78;33.00;;;9.80;99.90;;;10.01;78.50;99461.00;5051891;28;20772;-70
2024/03/10 06:49:33;;;;;;;44.83;31.40;;;9.80;99.90;;;10.01;78.37;99463.66;5051857;28;20041;-70
2024/03/10 06:52:02;;;;;;;45.40;31.80;;;9.80;99.90;;;9.81;78.73;99451.84;5052312;28;20040;-70
2024/03/10 06:54:30;;;;;;;46.33;32.60;;;9.70;99.90;;;9.82;79.19;99454.44;5051415;28;20389;-71
2024/03/10 06:57:00;;;;;;;44.42;32.17;;;9.60;99.90;;;9.94;78.76;99459.44;5051551;28;20071;-71
2024/03/10 06:59:32;;;;;;;46.53;33.22;;;9.70;99.90;;;9.33;78.83;99361.47;5051559;28;20068;-71
2024/03/10 07:02:01;;;;;;;44.67;31.95;;;9.70;99.90;;;9.92;78.75;99458.59;5033799;28;20041;-71
2024/03/10 07:04:29;;;;;;;44.85;31.60;;;9.70;99.90;;;9.95;79.03;99463.78;5033897;28;20075;-71
2024/03/10 07:06:58;;;;;;;44.60;32.08;;;9.70;99.90;;;9.86;78.91;99450.81;5051414;28;20443;-70
2024/03/10 07:09:26;;;;;;;46.05;32.47;;;9.70;99.90;;;9.89;78.64;99463.09;5033866;28;20139;-70
2024/03/10 07:11:55;;;;;;;47.45;32.22;;;9.70;99.90;;;9.92;78.86;99469.16;5051535;28;20442;-70
2024/03/10 07:14:26;;;;;;;45.88;32.65;;;9.70;99.90;;;9.93;78.75;99462.97;5051288;28;20033;-71
2024/03/10 07:16:54;;;;;;;42.97;31.70;;;9.70;99.90;;;9.83;78.91;99458.78;5051354;28;20037;-70
2024/03/10 07:19:23;;;;;;;43.65;32.05;;;9.70;99.90;;;9.72;79.02;99433.56;5051076;28;20116;-71
2024/03/10 07:21:52;;;;;;;44.92;32.67;;;9.60;99.90;;;9.68;78.99;99460.94;5051094;28;20098;-71
2024/03/10 07:24:20;;;;;;;47.67;33.95;;;9.60;99.90;;;9.66;79.79;99474.19;5051055;28;20090;-71
2024/03/10 07:26:49;;;;;;;48.97;32.83;;;9.50;99.90;;;9.67;79.55;99475.94;5050980;28;20504;-71
2024/03/10 07:29:17;;;;;;;48.17;32.08;;;9.50;99.90;;;9.74;79.99;99472.22;5050994;28;20041;-70
2024/03/10 07:31:48;;;;;;;46.08;31.55;;;9.50;99.90;;;9.57;79.63;99460.31;5051231;28;20091;-70
2024/03/10 07:34:17;;;;;;;44.92;32.60;;;9.50;99.90;;;9.69;80.17;99468.84;5033220;28;20087;-71
2024/03/10 07:36:46;;;;;;;43.78;31.52;;;9.50;99.90;;;9.73;79.78;99459.94;5051305;28;20547;-71
2024/03/10 07:39:14;;;;;;;45.28;32.78;;;9.50;99.90;;;9.69;79.55;99460.91;5032431;28;20045;-71
2024/03/10 07:41:43;;;;;;;46.55;32.08;;;9.50;99.90;;;9.70;79.60;99469.69;5051056;28;20350;-74
2024/03/10 07:44:11;;;;;;;44.78;31.52;;;9.50;99.90;;;9.66;80.08;99465.38;5050702;28;20313;-72
2024/03/10 07:46:40;;;;;;;47.15;32.55;;;9.50;99.90;;;9.77;79.71;99458.09;5050884;28;20045;-78
2024/03/10 07:49:10;;;;;;;40.90;30.02;;;9.50;99.90;;;9.70;79.82;99467.91;5050629;28;20033;-70
2024/03/10 07:51:39;;;;;;;46.70;32.45;;;9.50;99.90;;;9.72;79.86;99465.25;5032942;28;20385;-71
2024/03/10 07:54:07;;;;;;;42.88;30.70;;;9.50;99.90;;;9.59;79.54;99462.03;5050840;28;20478;-69
2024/03/10 07:56:36;;;;;;;44.10;31.13;;;9.40;99.90;;;9.69;79.49;99462.69;5032858;28;20390;-69
2024/03/10 07:59:04;;;;;;;44.40;31.10;;;9.50;99.90;;;9.72;79.36;99470.53;5050227;28;20048;-69
2024/03/10 08:01:34;;;;;;;42.95;31.30;;;9.50;99.90;;;9.62;79.74;99469.88;5033186;28;20064;-71
2024/03/10 08:04:04;;;;;;;45.25;31.52;;;9.40;99.90;;;9.67;79.38;99465.38;5050455;28;20428;-70
2024/03/10 08:06:35;;;;;;;42.33;31.42;;;9.50;99.90;;;9.72;79.73;99460.84;5050600;28;20085;-69
2024/03/10 08:09:05;;;;;;;43.35;30.55;;;9.50;99.90;;;9.67;79.79;99453.94;5050723;28;20131;-69
2024/03/10 08:11:34;;;;;;;45.25;30.83;;;9.40;99.90;;;9.78;79.63;99442.22;5032798;28;20052;-72
2024/03/10 08:14:04;;;;;;;44.17;30.20;;;9.60;99.90;;;9.58;79.40;99441.81;5050665;28;20044;-72
2024/03/10 08:16:32;;;;;;;42.72;30.83;;;9.50;99.90;;;9.76;79.63;99444.03;5050251;28;20045;-68
2024/03/10 08:19:01;;;;;;;42.67;29.75;;;9.50;99.90;;;9.62;79.17;99446.09;5050379;28;20049;-69
2024/03/10 08:21:30;;;;;;;43.72;29.90;;;9.50;99.90;;;9.75;79.03;99459.91;5050293;28;20037;-70
2024/03/10 08:24:00;;;;;;;42.95;30.10;;;9.50;99.90;;;9.80;78.64;99456.25;5032720;28;20037;-69
2024/03/10 08:26:29;;;;;;;42.42;30.98;;;9.60;99.90;;;9.82;78.78;99451.81;5032554;28;20474;-67
2024/03/10 08:28:57;;;;;;;41.58;29.45;;;9.60;99.90;;;9.80;78.82;99463.28;5050608;28;20047;-69
2024/03/10 08:31:26;;;;;;;42.30;30.48;;;9.70;99.90;;;9.94;78.81;99459.44;5050132;28;20041;-69
2024/03/10 08:33:55;;;;;;;43.45;29.92;;;9.70;99.90;;;10.06;78.66;99460.91;5050242;28;20385;-69
2024/03/10 08:36:23;;;;;;;40.97;30.00;;;9.80;99.90;;;10.16;78.05;99456.28;5032201;28;20052;-70
2024/03/10 08:38:52;;;;;;;41.45;29.85;;;9.90;99.90;;;10.15;78.32;99457.16;5050055;28;20041;-70
2024/03/10 08:41:22;;;;;;;43.72;31.52;;;9.90;99.90;;;10.05;78.20;99443.28;5050417;28;20053;-70
2024/03/10 08:43:51;;;;;;;43.67;30.80;;;10.00;99.90;;;9.49;77.90;99375.19;5050304;28;20389;-70
2024/03/10 08:46:19;;;;;;;42.30;30.17;;;9.90;99.90;;;10.06;78.39;99454.75;5050047;28;20128;-71
2024/03/10 08:48:48;;;;;;;42.83;29.80;;;9.80;99.90;;;9.82;78.83;99459.72;5032453;28;20048;-71
2024/03/10 08:51:17;;;;;;;41.05;29.58;;;9.70;99.90;;;10.03;78.52;99456.53;5052687;28;20041;-70
2024/03/10 08:53:46;;;;;;;41.05;28.35;;;9.80;99.90;;;9.77;78.91;99473.94;5053925;28;20041;-70
2024/03/10 08:56:14;;;;;;;42.85;29.48;;;9.70;99.90;;;9.95;79.23;99471.72;5053989;28;20065;-70
2024/03/10 08:58:44;;;;;;;44.45;30.95;;;9.70;99.90;;;10.11;78.76;99468.72;5054081;28;20068;-75
2024/03/10 09:01:13;;;;;;;44.55;29.55;;;9.90;99.90;;;9.97;79.07;99471.66;5053867;28;20045;-73
2024/03/10 09:03:41;;;;;;;44.60;29.52;;;9.80;99.90;;;10.04;79.01;99473.28;5054059;28;20049;-76
2024/03/10 09:06:10;;;;;;;43.95;29.20;;;9.80;99.90;;;10.06;78.69;99465.31;5053649;28;20056;-71
2024/03/10 09:08:39;;;;;;;41.75;29.40;;;9.80;99.90;;;10.30;78.52;99456.81;5053980;28;20041;-77
2024/03/10 09:11:11;;;;;;;42.05;28.90;;;10.00;99.90;;;10.38;78.07;99475.94;5053514;28;20041;-74
2024/03/10 09:13:41;;;;;;;39.33;27.08;;;10.20;99.90;;;10.20;77.18;99473.78;5053866;28;20071;-71
2024/03/10 09:16:12;;;;;;;40.90;28.42;;;10.10;99.90;;;10.12;77.99;99463.44;5053248;28;20041;-71
2024/03/10 09:18:41;;;;;;;41.30;28.10;;;10.00;99.90;;;10.00;77.83;99483.06;5053421;28;20483;-71
2024/03/10 09:21:09;;;;;;;44.42;28.20;;;9.90;99.90;;;10.00;77.75;99476.91;5053395;28;20090;-72
2024/03/10 09:23:38;;;;;;;40.65;27.35;;;9.90;99.90;;;9.81;78.80;99470.31;5053392;28;20037;-71
2024/03/10 09:26:07;;;;;;;38.85;27.65;;;9.60;99.90;;;9.99;78.08;99454.88;5053269;28;20045;-71
2024/03/10 09:28:36;;;;;;;40.40;26.55;;;9.80;99.90;;;10.07;77.04;99452.06;5053192;28;20044;-71
2024/03/10 09:31:07;;;;;;;36.15;24.85;;;9.90;99.90;;;9.93;77.42;99454.16;5053179;28;20120;-73
2024/03/10 09:33:39;;;;;;;38.05;26.35;;;9.80;99.90;;;9.94;77.63;99464.72;5053348;28;20124;-70
2024/03/10 09:36:08;;;;;;;;;;;9.80;99.90;;;10.20;77.43;99468.50;5019747;28;20077;-72
2024/03/10 09:38:37;;;;;;;39.47;26.88;;;9.90;99.90;;;10.00;77.48;99469.84;5013410;28;19925;-72
2024/03/10 09:41:10;;;;;;;38.97;27.17;;;9.80;99.90;;;9.96;77.54;99452.34;5013406;28;20478;-69
2024/03/10 09:43:40;;;;;;;40.30;26.80;;;9.70;99.90;;;10.02;77.39;99443.38;5013455;28;20049;-70
2024/03/10 09:46:10;;;;;;;41.10;27.25;;;9.90;99.90;;;10.16;77.25;99466.84;5013298;28;20050;-70
2024/03/10 09:48:42;;;;;;;39.75;27.70;;;9.90;99.90;;;10.00;76.72;99472.50;5013340;28;20507;-70
2024/03/10 09:51:14;;;;;;;37.58;27.40;;;9.90;99.90;;;9.85;78.25;99474.63;5013265;28;20049;-68
2024/03/10 09:53:44;;;;;;;37.95;26.60;;;9.70;99.90;;;9.62;78.57;99464.59;5013107;28;20046;-70
2024/03/10 09:56:13;;;;;;;39.22;27.63;;;9.60;99.90;;;9.70;79.21;99485.53;5013146;28;20038;-70
2024/03/10 09:58:47;;;;;;;38.80;26.55;;;9.50;99.90;;;9.85;78.81;99470.19;5013213;28;20367;-70
2024/03/10 10:01:20;;;;;;;41.97;28.70;;;9.60;99.90;;;10.04;79.00;99460.91;5028054;28;20399;-68
2024/03/10 10:03:52;;;;;;;37.08;26.35;;;9.70;99.90;;;9.57;78.28;99367.94;5013107;28;20080;-69
2024/03/10 10:06:22;;;;;;;36.80;26.25;;;9.80;99.90;;;9.87;78.60;99483.38;5028561;28;20100;-68
2024/03/10 10:08:54;;;;;;;40.60;28.08;;;9.70;99.90;;;9.87;79.99;99494.78;5013234;28;20034;-68
2024/03/10 10:11:24;;;;;;;38.53;27.83;;;9.60;99.90;;;9.91;79.77;99477.97;5012766;28;20038;-69
2024/03/10 10:14:14;;;;;;;39.10;26.58;;;9.70;99.90;;;9.98;78.85;99489.28;5011508;28;20050;-70
2024/03/10 10:16:55;;;;;;;41.47;27.23;;;9.70;99.90;;;9.27;79.94;99393.28;5027877;28;20044;-69
2024/03/10 10:19:29;;;;;;;36.87;26.20;;;9.70;99.90;;;9.46;80.00;99402.53;5028010;28;20060;-69
2024/03/10 10:21:58;;;;;;;36.38;27.30;;;9.60;99.90;;;9.96;79.60;99460.25;5012641;28;20300;-70
2024/03/10 10:24:27;;;;;;;37.88;26.85;;;9.80;99.90;;;10.10;79.60;99493.41;5012440;28;20054;-70
2024/03/10 10:26:59;;;;;;;35.47;26.23;;;9.90;99.90;;;10.38;80.27;99475.94;5012443;28;20050;-69
2024/03/10 10:29:28;;;;;;;36.85;27.10;;;10.10;99.90;;;10.40;78.63;99464.44;5011285;28;20042;-68
2024/03/10 10:31:59;;;;;;;38.17;26.63;;;10.20;99.90;;;10.41;78.10;99433.59;5012184;28;20034;-68
2024/03/10 10:34:29;;;;;;;37.40;26.00;;;10.30;99.90;;;10.52;77.87;99460.59;5012274;28;20041;-69
2024/03/10 10:37:00;;;;;;;37.55;27.30;;;10.40;99.90;;;10.46;78.43;99484.53;5010751;28;20384;-69
2024/03/10 10:39:29;;;;;;;36.20;24.98;;;10.30;99.90;;;10.55;78.49;99471.94;5012081;28;20064;-68
2024/03/10 10:41:59;;;;;;;40.10;28.23;;;10.30;99.90;;;10.71;78.33;99475.91;5012412;28;20037;-67
2024/03/10 10:44:30;;;;;;;34.33;26.58;;;10.40;99.90;;;10.93;77.30;99491.19;5012089;28;20034;-67